Time;durP1;ratioP1;P1;durP2;ratioP2;P2;SDS_P1;SDS_P2;PMS_P1;PMS_P2;Temp;Humidity;BMP_temperature;BMP_pressure;BME280_temperature;BME280_humidity;BME280_pressure;Samples;Min_cycle;Max_cycle;Signal;HPM_P1;HPM_P2
2022/02/09 00:02:09;;;;;;;;;79.50;63.75;;;;;6.83;74.13;102376.81;5093185;27;46063;-76
2022/02/09 00:04:42;;;;;;;;;69.50;56.00;;;;;6.93;74.25;102381.03;5092800;27;46274;-76
2022/02/09 00:07:17;;;;;;;;;84.50;67.25;;;;;6.37;74.43;102297.56;5093017;27;45459;-78
2022/02/09 00:09:45;;;;;;;;;85.00;66.75;;;;;6.17;73.93;102254.28;5093166;27;45583;-77
2022/02/09 00:12:23;;;;;;;;;84.25;69.25;;;;;6.30;74.32;102277.00;5092731;27;45434;-78
2022/02/09 00:23:31;;;;;;;;;83.50;66.25;;;;;6.33;74.24;102273.72;5092942;27;45733;-76
2022/02/09 00:42:07;;;;;;;;;80.00;63.25;;;;;6.07;74.06;102243.03;5096978;27;45385;-86
2022/02/09 00:44:47;;;;;;;;;83.25;64.25;;;;;6.19;74.01;102264.81;5097017;27;45455;-87
2022/02/09 01:39:45;;;;;;;;;60.00;49.25;;;;;5.68;73.98;102240.00;5096209;27;45432;-86
2022/02/09 01:55:51;;;;;;;;;49.25;43.75;;;;;5.66;74.02;102257.25;5095199;27;45421;-88
2022/02/09 01:58:18;;;;;;;;;60.50;50.00;;;;;5.94;74.11;102295.97;5097692;27;45503;-89
2022/02/09 02:00:44;;;;;;;;;60.50;49.25;;;;;5.87;74.10;102285.81;5097962;27;45505;-87
2022/02/09 02:03:10;;;;;;;;;60.75;45.75;;;;;6.22;73.80;102355.53;5096007;27;46628;-87
2022/02/09 02:05:35;;;;;;;;;66.25;54.00;;;;;5.53;74.38;102245.72;5096230;27;45661;-88
2022/02/09 02:08:03;;;;;;;;;74.25;58.50;;;;;5.36;74.06;102206.19;5095919;27;45419;-84
2022/02/09 02:10:49;;;;;;;;;72.75;58.25;;;;;5.61;73.96;102271.59;5095798;27;45456;-87
2022/02/09 02:18:26;;;;;;;;;68.25;55.50;;;;;5.99;74.14;102323.31;5096105;27;45246;-89
2022/02/09 02:21:12;;;;;;;;;69.25;55.25;;;;;5.75;73.91;102293.56;5095968;27;45362;-86
2022/02/09 02:31:41;;;;;;;;;65.75;53.75;;;;;5.74;73.85;102272.59;5095561;27;45366;-86
2022/02/09 02:36:49;;;;;;;;;62.50;52.50;;;;;5.33;73.75;102210.28;5095735;27;45921;-85
2022/02/09 02:39:43;;;;;;;;;63.75;52.00;;;;;5.85;73.79;102289.97;5095815;27;45381;-86
2022/02/09 03:12:01;;;;;;;;;63.25;51.00;;;;;5.41;73.89;102223.09;5094485;27;45463;-81
2022/02/09 03:14:51;;;;;;;;;63.00;52.00;;;;;4.92;73.94;102133.22;5094646;27;45444;-87
2022/02/09 03:17:21;;;;;;;;;59.75;50.25;;;;;5.09;73.97;102155.41;5094634;27;45498;-88
2022/02/09 03:19:58;;;;;;;;;59.00;48.50;;;;;5.61;74.04;102242.91;5094739;27;45688;-85
2022/02/09 03:22:38;;;;;;;;;56.50;46.25;;;;;5.15;74.07;102153.28;5094753;27;45542;-86
2022/02/09 03:49:28;;;;;;;;;50.67;44.00;;;;;4.82;74.24;102094.19;5093926;27;45473;-85
2022/02/09 03:51:54;;;;;;;;;51.25;41.25;;;;;5.03;74.43;102122.75;5093698;27;45639;-86
2022/02/09 03:59:18;;;;;;;;;49.00;43.50;;;;;4.99;74.50;102116.41;5094473;27;45917;-87
2022/02/09 04:01:45;;;;;;;;;44.25;40.50;;;;;4.91;74.22;102104.44;5093669;27;46286;-86
2022/02/09 04:04:11;;;;;;;;;50.50;43.75;;;;;4.76;74.24;102069.38;5094273;27;46081;-88
2022/02/09 04:06:37;;;;;;;;;47.50;40.50;;;;;4.76;73.99;102085.91;5094001;27;45543;-89
2022/02/09 04:09:07;;;;;;;;;45.50;41.50;;;;;4.94;73.93;102109.00;5093599;27;45614;-85
2022/02/09 04:11:43;;;;;;;;;49.75;43.00;;;;;4.94;73.81;102109.00;5094566;27;45572;-87
2022/02/09 04:14:19;;;;;;;;;44.00;40.75;;;;;4.83;73.92;102085.63;5097892;27;45371;-86
2022/02/09 04:17:08;;;;;;;;;46.00;39.75;;;;;4.84;74.17;102103.06;5098123;27;45426;-87
2022/02/09 04:36:28;;;;;;;;;45.25;39.50;;;;;4.91;73.74;102118.38;5096040;27;45684;-87
2022/02/09 04:39:04;;;;;;;;;41.25;38.00;;;;;5.40;73.71;102199.53;5097334;27;45514;-86
2022/02/09 04:44:33;;;;;;;;;43.75;38.75;;;;;5.00;73.94;102131.22;5096960;27;45536;-86
2022/02/09 04:57:16;;;;;;;;;47.50;43.25;;;;;4.63;73.99;102093.53;5096370;27;45349;-84
2022/02/09 05:00:07;;;;;;;;;56.50;42.25;;;;;4.55;74.06;102074.69;5096792;27;45318;-86
2022/02/09 05:03:00;;;;;;;;;46.75;39.75;;;;;4.58;73.94;102087.97;5096194;27;46334;-86
2022/02/09 05:17:45;;;;;;;;;49.25;41.00;;;;;4.52;73.77;102082.25;5096415;27;45751;-87
2022/02/09 05:29:42;;;;;;;;;52.25;43.75;;;;;5.00;73.93;102175.53;5096411;27;45450;-83
2022/02/09 05:32:08;;;;;;;;;52.50;44.75;;;;;4.98;73.91;102182.31;5109395;27;45493;-84
2022/02/09 05:34:33;;;;;;;;;48.25;43.00;;;;;4.76;73.72;102150.13;5105155;27;46338;-87
2022/02/09 05:37:00;;;;;;;;;43.00;38.00;;;;;4.56;74.13;102123.38;5104113;27;45334;-79
2022/02/09 05:39:26;;;;;;;;;39.50;37.00;;;;;4.40;73.81;102109.91;5109486;27;44699;-86
2022/02/09 05:41:51;;;;;;;;;46.75;41.75;;;;;5.05;73.82;102212.38;5113168;27;45055;-88
2022/02/09 05:44:17;;;;;;;;;40.25;37.75;;;;;4.32;73.66;102097.97;5105863;27;45690;-85
2022/02/09 05:55:04;;;;;;;;;44.50;40.75;;;;;4.80;74.05;102178.22;5108950;27;45423;-84
2022/02/09 05:57:43;;;;;;;;;45.50;38.75;;;;;4.70;73.86;102166.16;5094422;27;45831;-82
2022/02/09 06:00:09;;;;;;;;;42.00;39.25;;;;;4.88;73.70;102213.63;5095784;27;45452;-81
2022/02/09 06:02:34;;;;;;;;;41.00;38.25;;;;;4.09;74.04;102067.50;5095544;27;45620;-87
2022/02/09 06:04:59;;;;;;;;;52.67;45.67;;;;;4.38;74.02;102132.28;5094502;27;48317;-86
2022/02/09 06:07:25;;;;;;;;;59.00;49.00;;;;;4.40;74.07;102135.94;5095249;27;45283;-84
2022/02/09 06:09:50;;;;;;;;;57.00;45.67;;;;;4.29;74.46;102106.44;5095337;27;45926;-87
2022/02/09 06:12:40;;;;;;;;;56.75;47.00;;;;;4.85;73.96;102218.56;5095136;27;45458;-87
2022/02/09 06:20:24;;;;;;;;;56.00;47.25;;;;;4.35;74.00;102129.47;5094810;27;45425;-77
2022/02/09 06:22:49;;;;;;;;;54.25;44.50;;;;;4.23;73.91;102113.72;5094793;27;45573;-86
2022/02/09 06:25:17;;;;;;;;;52.00;43.00;;;;;4.16;73.58;102097.50;5098314;27;46153;-85
2022/02/09 06:27:42;;;;;;;;;52.75;41.50;;;;;4.65;74.09;102183.09;5108471;27;45224;-87
2022/02/09 06:30:08;;;;;;;;;45.33;40.00;;;;;4.35;74.31;102145.97;5113539;27;45340;-87
2022/02/09 06:32:34;;;;;;;;;53.75;40.75;;;;;4.20;74.32;102110.00;5111759;27;44973;-88
2022/02/09 06:35:00;;;;;;;;;49.00;41.75;;;;;4.71;74.33;102206.13;5108121;27;45434;-82
2022/02/09 06:37:37;;;;;;;;;46.75;41.75;;;;;4.38;74.48;102150.50;5105800;27;45592;-83
2022/02/09 06:40:04;;;;;;;;;52.25;44.25;;;;;4.26;74.36;102131.31;5111129;27;45374;-84
2022/02/09 06:42:31;;;;;;;;;42.50;39.50;;;;;4.77;74.42;102217.03;5112849;27;45118;-86
2022/02/09 06:45:08;;;;;;;;;43.50;38.75;;;;;4.16;74.43;102114.03;5107147;27;45935;-84
2022/02/09 06:47:34;;;;;;;;;42.00;39.25;;;;;4.85;74.29;102235.13;5106641;27;45428;-84
2022/02/09 06:50:03;;;;;;;;;48.00;41.00;;;;;4.00;74.37;102095.34;5105118;27;45189;-87
2022/02/09 06:52:29;;;;;;;;;44.50;38.50;;;;;4.05;73.99;102109.66;5106984;27;46208;-82
2022/02/09 06:55:10;;;;;;;;;39.50;37.00;;;;;4.12;74.03;102138.88;5110690;27;45875;-87
2022/02/09 07:00:15;;;;;;;;;51.50;44.75;;;;;4.08;73.86;102122.88;5109766;27;45152;-82
2022/02/09 07:02:42;;;;;;;;;60.75;49.75;;;;;3.94;74.36;102106.16;5110662;27;45118;-83
2022/02/09 07:05:08;;;;;;;;;56.50;46.00;;;;;4.11;74.32;102141.34;5110349;27;47573;-83
2022/02/09 07:07:34;;;;;;;;;61.00;48.00;;;;;4.72;74.31;102252.22;5110784;27;45325;-79
2022/02/09 07:09:59;;;;;;;;;57.00;48.00;;;;;3.99;74.28;102116.91;5110809;27;44967;-86
2022/02/09 07:12:24;;;;;;;;;44.67;42.00;;;;;4.38;73.88;102192.16;5097216;27;45379;-83
2022/02/09 07:14:50;;;;;;;;;51.50;43.75;;;;;4.29;74.07;102174.13;5093231;27;46587;-84
2022/02/09 07:17:15;;;;;;;;;55.50;44.75;;;;;4.02;73.94;102130.19;5094169;27;45594;-82
2022/02/09 07:19:43;;;;;;;;;55.00;46.33;;;;;4.01;73.99;102146.59;5101586;27;45505;-79
2022/02/09 07:22:13;;;;;;;;;48.75;42.75;;;;;4.13;74.09;102148.50;5105491;27;45782;-88
2022/02/09 07:24:38;;;;;;;;;42.75;38.50;;;;;4.10;74.74;102143.06;5096251;27;45630;-82
2022/02/09 07:27:38;;;;;;;;;47.00;41.00;;;;;4.51;74.61;102213.22;5101127;27;45566;-82
2022/02/09 07:30:03;;;;;;;;;49.00;42.00;;;;;4.72;74.52;102239.19;5105272;27;45424;-86
2022/02/09 07:32:29;;;;;;;;;52.25;43.50;;;;;4.62;74.55;102219.31;5107982;27;45326;-82
2022/02/09 07:34:54;;;;;;;;;49.33;42.00;;;;;4.77;74.17;102238.78;5103067;27;46367;-77
2022/02/09 07:37:19;;;;;;;;;43.50;39.50;;;;;4.33;74.31;102162.25;5108776;27;45144;-81
2022/02/09 07:39:45;;;;;;;;;45.00;40.50;;;;;4.66;74.17;102218.78;5110139;27;45446;-82
2022/02/09 07:42:13;;;;;;;;;38.00;36.25;;;;;4.42;74.01;102173.41;5109150;27;45486;-80
2022/02/09 07:45:22;;;;;;;;;53.00;43.00;;;;;4.71;73.88;102211.34;5108256;27;47258;-77
2022/02/09 07:52:55;;;;;;;;;45.50;42.00;;;;;4.21;74.01;102123.13;5109969;27;45417;-82
2022/02/09 07:55:20;;;;;;;;;51.25;45.00;;;;;4.39;73.71;102152.34;5094480;27;45498;-83
2022/02/09 07:57:46;;;;;;;;;55.00;45.00;;;;;4.31;73.89;102122.19;5091930;27;45592;-78
2022/02/09 08:00:13;;;;;;;;;58.25;45.00;;;;;4.45;73.98;102150.25;5088550;27;45466;-81
2022/02/09 08:02:39;;;;;;;;;46.25;42.75;;;;;4.87;74.07;102203.97;5094892;27;45471;-81
2022/02/09 08:05:05;;;;;;;;;41.00;38.50;;;;;5.14;74.00;102250.50;5087588;27;45969;-75
2022/02/09 08:07:30;;;;;;;;;46.25;41.00;;;;;4.50;73.84;102140.22;5094594;27;45737;-78
2022/02/09 08:09:58;;;;;;;;;51.75;41.50;;;;;4.66;74.08;102154.56;5074016;27;45423;-76
2022/02/09 08:26:43;;;;;;;;;62.00;51.50;;;;;4.55;74.32;102082.50;5093267;27;45994;-78
2022/02/09 08:33:21;;;;;;;;;62.00;49.75;;;;;5.37;74.52;102191.47;5096055;27;45281;-76
2022/02/09 08:35:49;;;;;;;;;62.75;51.25;;;;;4.84;74.32;102110.88;5096018;27;46178;-76
2022/02/09 08:38:16;;;;;;;;;62.25;51.50;;;;;5.60;74.34;102227.16;5095788;27;45453;-76
2022/02/09 08:40:42;;;;;;;;;59.25;48.50;;;;;5.15;74.11;102126.31;5094809;27;45498;-75
2022/02/09 08:43:11;;;;;;;;;62.25;50.00;;;;;5.20;74.33;102130.19;5096243;27;45556;-76
2022/02/09 08:45:39;;;;;;;;;57.25;46.75;;;;;5.04;73.96;102103.72;5095814;27;45345;-76
2022/02/09 08:48:05;;;;;;;;;64.00;52.50;;;;;5.28;74.31;102110.84;5094671;27;45333;-76
2022/02/09 08:50:32;;;;;;;;;64.75;52.00;;;;;5.93;74.38;102215.88;5095769;27;45446;-76
2022/02/09 08:52:57;;;;;;;;;61.75;49.75;;;;;5.55;74.32;102140.75;5102687;27;45219;-76
2022/02/09 08:55:23;;;;;;;;;63.75;50.00;;;;;5.37;74.46;102105.44;5093283;27;46142;-76
2022/02/09 08:57:48;;;;;;;;;59.50;49.50;;;;;5.17;74.41;102060.50;5094513;27;45519;-77
2022/02/09 09:00:23;;;;;;;;;63.25;51.25;;;;;5.91;74.54;102159.97;5094551;27;45409;-78
2022/02/09 09:03:03;;;;;;;;;63.00;52.00;;;;;5.55;74.57;102096.41;5094935;27;45942;-76
2022/02/09 09:05:40;;;;;;;;;54.50;46.25;;;;;5.91;74.64;102129.66;5094449;27;46067;-76
2022/02/09 09:08:22;;;;;;;;;53.00;45.00;;;;;6.37;75.05;102210.50;5094577;27;45240;-76
2022/02/09 09:11:10;;;;;;;;;53.75;45.50;;;;;5.93;75.32;102114.09;5094337;27;45485;-75
2022/02/09 10:00:30;;;;;;;;;32.25;29.50;;;;;6.78;72.29;102034.97;5092508;27;45409;-74
2022/02/09 10:02:52;;;;;;;;;30.25;28.75;;;;;7.18;72.51;102088.31;5099153;27;45254;-76
2022/02/09 10:05:45;;;;;;;;;27.25;27.25;;;;;6.99;72.12;102041.69;5090625;27;45598;-76
2022/02/09 10:34:11;;;;;;;;;35.00;31.25;;;;;8.24;70.68;102175.88;5093726;27;45448;-83
2022/02/09 10:36:51;;;;;;;;;36.50;33.25;;;;;7.62;70.73;102054.75;5089989;27;46029;-76
2022/02/09 10:39:32;;;;;;;;;40.25;37.75;;;;;8.04;70.02;102108.16;5093715;27;45557;-76
2022/02/09 10:42:12;;;;;;;;;35.75;34.25;;;;;8.44;69.92;102168.44;5091064;27;45476;-84
2022/02/09 10:44:45;;;;;;;;;35.75;34.00;;;;;7.91;69.41;102068.88;5098297;27;45396;-75
2022/02/09 10:47:32;;;;;;;;;39.50;33.25;;;;;8.54;69.68;102176.13;5092838;27;45759;-76
2022/02/09 10:50:06;;;;;;;;;34.25;32.00;;;;;8.61;69.55;102153.81;5088135;27;45681;-76
2022/02/09 10:52:59;;;;;;;;;44.00;37.25;;;;;8.64;69.21;102140.94;5091928;27;45508;-76
2022/02/09 10:55:39;;;;;;;;;35.75;34.25;;;;;8.72;69.48;102140.63;5089526;27;46355;-76
2022/02/09 10:58:15;;;;;;;;;37.00;34.75;;;;;8.27;69.29;102058.22;5087641;27;45691;-76
2022/02/09 11:00:46;;;;;;;;;45.75;39.50;;;;;8.03;69.13;102006.88;5082407;27;45715;-78
2022/02/09 11:03:19;;;;;;;;;38.75;35.75;;;;;8.15;69.12;102006.75;5095942;27;45534;-75
2022/02/09 11:05:47;;;;;;;;;38.25;34.00;;;;;8.98;68.89;102144.91;5100012;27;45826;-76
2022/02/09 11:08:13;;;;;;;;;39.50;35.75;;;;;8.50;68.51;102030.88;5110504;27;45482;-77
2022/02/09 11:10:39;;;;;;;;;41.50;36.50;;;;;8.54;68.21;102021.50;5100533;27;45802;-78
2022/02/09 11:13:11;;;;;;;;;42.00;37.50;;;;;8.22;68.05;101957.47;5106919;27;45220;-76
2022/02/09 11:15:44;;;;;;;;;39.25;36.00;;;;;8.64;68.35;102026.53;5094030;27;46709;-83
2022/02/09 11:18:14;;;;;;;;;41.25;36.75;;;;;8.57;68.47;102006.00;5107275;27;46283;-77
2022/02/09 11:20:58;;;;;;;;;31.75;30.50;;;;;9.34;68.15;102121.78;5106935;27;45266;-76
2022/02/09 11:34:55;;;;;;;;;37.00;35.25;;;;;9.69;67.07;102095.03;5106924;27;45067;-77
2022/02/09 11:37:46;;;;;;;;;38.75;36.00;;;;;9.25;67.54;101997.91;5092773;27;45526;-77
2022/02/09 11:40:53;;;;;;;;;45.00;37.75;;;;;9.40;66.87;102003.16;5102944;27;45077;-76
2022/02/09 11:43:30;;;;;;;;;40.00;37.50;;;;;9.91;67.16;102091.06;5094753;27;45382;-79
2022/02/09 12:10:47;;;;;;;;;41.25;38.00;;;;;10.04;66.28;101983.25;5091712;27;45602;-77
2022/02/09 12:13:51;;;;;;;;;46.75;38.25;;;;;10.39;66.43;102029.94;5091214;27;45724;-77
2022/02/09 12:19:27;;;;;;;;;37.50;36.00;;;;;10.06;65.36;101945.78;5090399;27;45790;-76
2022/02/09 12:24:24;;;;;;;;;39.75;35.25;;;;;10.33;65.13;101992.81;5092947;27;45930;-77
2022/02/09 12:26:58;;;;;;;;;36.50;34.50;;;;;10.78;65.63;102047.00;5092567;27;45401;-76
2022/02/09 12:29:30;;;;;;;;;39.50;36.75;;;;;10.38;65.92;101953.66;5092706;27;45377;-76
2022/02/09 12:31:55;;;;;;;;;34.50;33.00;;;;;10.17;65.18;101898.16;5092091;27;45453;-76
2022/02/09 12:34:27;;;;;;;;;37.25;34.00;;;;;10.64;65.84;101955.03;5088848;27;45357;-76
2022/02/09 12:36:55;;;;;;;;;39.75;34.50;;;;;10.68;65.50;101952.66;5075912;27;45448;-77
2022/02/09 12:39:21;;;;;;;;;39.50;35.75;;;;;10.78;64.66;101933.03;5092965;27;45464;-76
2022/02/09 12:41:49;;;;;;;;;31.75;29.75;;;;;10.91;64.78;101924.06;5095132;27;45452;-76
2022/02/09 12:44:21;;;;;;;;;36.00;33.25;;;;;11.37;64.51;101990.47;5087700;27;45506;-76
2022/02/09 12:46:47;;;;;;;;;31.50;31.00;;;;;11.71;63.60;102010.63;5092496;27;45607;-76
2022/02/09 12:49:13;;;;;;;;;32.25;29.75;;;;;11.88;64.02;102009.78;5094111;27;45600;-77
2022/02/09 12:51:41;;;;;;;;;32.25;28.25;;;;;11.85;63.99;101968.38;5094019;27;45819;-76
2022/02/09 12:54:09;;;;;;;;;29.00;27.75;;;;;12.30;63.61;102003.03;5095681;27;45822;-76
2022/02/09 12:56:37;;;;;;;;;31.75;31.00;;;;;12.29;63.47;101963.44;5095593;27;45453;-76
2022/02/09 12:59:06;;;;;;;;;30.50;27.00;;;;;11.93;62.60;101870.38;5095011;27;45677;-76
2022/02/09 13:01:43;;;;;;;;;30.50;28.75;;;;;12.31;61.76;101888.84;5089915;27;46405;-78
2022/02/09 13:04:10;;;;;;;;;27.50;26.50;;;;;12.91;61.92;101942.56;5090205;27;45765;-76
2022/02/09 13:06:35;;;;;;;;;30.25;25.00;;;;;13.33;62.00;101868.72;5094715;27;45630;-88
2022/02/09 13:09:01;;;;;;;;;26.75;25.75;;;;;15.58;59.87;101926.50;5095836;27;45443;-79
2022/02/09 13:11:31;;;;;;;;;24.75;24.00;;;;;17.37;56.90;101946.00;5086985;27;46269;-77
2022/02/09 13:14:13;;;;;;;;;30.75;27.00;;;;;18.56;53.72;101876.97;5084430;27;45730;-86
2022/02/09 13:16:51;;;;;;;;;22.50;22.50;;;;;19.59;51.99;101837.09;5085034;27;45642;-76
2022/02/09 14:04:20;;;;;;;;;20.50;19.25;;;;;20.96;42.73;101775.53;5094356;27;45301;-76
2022/02/09 14:12:21;;;;;;;;;16.25;15.75;;;;;21.61;41.72;101863.44;5109411;27;46167;-78
2022/02/09 14:52:50;;;;;;;;;16.00;14.75;;;;;14.62;49.99;101821.69;5069517;27;45560;-82
2022/02/09 14:58:02;;;;;;;;;15.25;15.25;;;;;14.22;50.95;101808.75;5067346;27;45508;-80
2022/02/09 15:00:28;;;;;;;;;17.50;17.00;;;;;14.39;51.72;101868.47;5067561;27;45311;-82
2022/02/09 15:03:06;;;;;;;;;15.00;15.00;;;;;14.16;52.16;101856.13;5067799;28;46136;-79
2022/02/09 15:08:47;;;;;;;;;19.00;18.00;;;;;13.88;53.75;101843.59;5064807;28;45405;-79
2022/02/09 15:11:25;;;;;;;;;14.25;13.50;;;;;13.73;54.33;101835.97;5068913;27;45421;-82
2022/02/09 15:14:06;;;;;;;;;17.50;16.50;;;;;13.74;54.95;101844.78;5069021;27;45445;-78
2022/02/09 15:16:43;;;;;;;;;17.00;16.50;;;;;13.37;54.62;101801.09;5069275;28;46027;-80
2022/02/09 15:19:25;;;;;;;;;17.50;16.25;;;;;13.26;55.15;101802.41;5069593;27;45464;-81
2022/02/09 15:22:03;;;;;;;;;17.00;17.00;;;;;13.33;55.03;101834.38;5069130;27;45305;-80
2022/02/09 15:27:10;;;;;;;;;15.00;14.75;;;;;13.30;54.86;101863.31;5069735;27;45516;-81
2022/02/09 15:29:37;;;;;;;;;18.25;15.75;;;;;13.20;54.98;101854.88;5069047;27;45468;-81
2022/02/09 15:32:07;;;;;;;;;17.50;16.00;;;;;13.05;56.20;101842.88;5057684;27;45346;-80
2022/02/09 15:34:44;;;;;;;;;14.00;13.75;;;;;12.62;56.17;101775.09;5055303;28;46162;-80
2022/02/09 15:37:18;;;;;;;;;16.00;15.50;;;;;13.04;55.93;101861.28;5055337;28;45796;-79
2022/02/09 15:39:48;;;;;;;;;19.50;15.75;;;;;12.98;56.02;101853.09;5055542;28;45401;-79
2022/02/09 15:42:34;;;;;;;;;17.50;17.00;;;;;12.93;55.34;101859.94;5055793;28;45308;-80
2022/02/09 16:09:36;;;;;;;;;17.25;16.50;;;;;12.11;57.80;101781.59;5054914;28;45392;-81
2022/02/09 16:23:30;;;;;;;;;15.75;14.00;;;;;12.02;58.53;101790.03;5055399;28;45418;-80
2022/02/09 16:44:39;;;;;;;;;19.00;19.00;;;;;11.14;60.34;101715.66;5054009;28;45389;-81
2022/02/09 16:50:04;;;;;;;;;16.00;14.75;;;;;11.29;61.19;101786.56;5043110;28;46401;-80
2022/02/09 17:19:02;;;;;;;;;23.75;21.50;;;;;10.32;63.77;101737.03;5054518;28;45689;-81
2022/02/09 17:21:30;;;;;;;;;20.50;19.50;;;;;10.61;64.20;101795.44;5053506;28;45519;-81
2022/02/09 17:24:02;;;;;;;;;25.25;22.50;;;;;10.48;64.15;101783.38;5052161;28;45955;-83
2022/02/09 17:57:38;;;;;;;;;57.00;44.50;;;;;9.83;66.24;101796.53;5053560;28;45444;-82
2022/02/09 18:00:15;;;;;;;;;56.25;47.00;;;;;9.64;66.45;101773.63;5049384;28;45320;-81
2022/02/09 18:02:43;;;;;;;;;63.00;50.25;;;;;9.76;66.53;101803.19;5048953;28;45647;-82
2022/02/09 18:05:43;;;;;;;;;55.75;45.50;;;;;9.73;66.83;101804.72;5047983;28;45732;-83
2022/02/09 18:07:59;;;;;;;;;52.50;43.00;;;;;8.98;66.90;101693.91;5048922;28;45394;-82
2022/02/09 18:10:42;;;;;;;;;52.50;43.25;;;;;9.24;66.59;101729.44;5049808;28;45466;-82
2022/02/09 18:29:50;;;;;;;;;64.00;52.75;;;;;8.49;67.20;101636.09;5049445;28;45366;-82
2022/02/09 19:03:52;;;;;;;;;73.50;59.00;;;;;8.45;67.85;101702.22;5060593;28;45492;-80
2022/02/09 19:06:22;;;;;;;;;83.25;67.00;;;;;8.84;68.31;101775.19;5060552;28;45364;-81
2022/02/09 19:30:37;;;;;;;;;72.75;56.00;;;;;8.48;69.16;101735.56;5061476;28;45271;-81
2022/02/09 19:41:02;;;;;;;;;71.75;57.00;;;;;8.37;69.09;101727.03;5056609;28;45373;-81
2022/02/09 19:48:55;;;;;;;;;71.50;57.25;;;;;8.39;68.93;101740.25;5030006;28;45496;-81
2022/02/09 19:56:46;;;;;;;;;76.25;61.25;;;;;8.26;69.25;101751.66;5055888;28;45509;-82
2022/02/09 19:59:19;;;;;;;;;78.25;62.00;;;;;8.21;69.11;101760.97;5092605;28;45306;-81
2022/02/09 20:01:46;;;;;;;;;76.75;61.50;;;;;7.86;69.31;101703.84;5092343;28;45114;-81
2022/02/09 20:04:13;;;;;;;;;74.50;60.75;;;;;7.59;69.10;101646.44;5092605;28;44908;-81
2022/02/09 20:06:40;;;;;;;;;69.75;56.50;;;;;7.81;69.39;101693.09;5092562;28;45203;-81
2022/02/09 20:09:05;;;;;;;;;73.50;58.25;;;;;8.11;69.69;101748.13;5091994;28;45710;-81
2022/02/09 20:11:31;;;;;;;;;76.50;60.00;;;;;7.79;70.01;101704.31;5092887;28;45136;-81
2022/02/09 20:13:56;;;;;;;;;83.25;64.75;;;;;7.50;69.79;101645.88;5092336;28;45102;-81
2022/02/09 20:16:24;;;;;;;;;82.25;62.75;;;;;8.06;69.92;101740.00;5091617;28;45187;-81
2022/02/09 20:18:51;;;;;;;;;78.25;62.50;;;;;7.74;69.76;101685.72;5075396;28;46120;-81
2022/02/09 20:21:17;;;;;;;;;80.75;62.75;;;;;8.02;69.45;101738.91;5055738;28;45530;-81
2022/02/09 20:23:42;;;;;;;;;75.50;60.75;;;;;7.72;69.45;101685.59;5074528;28;45568;-81
2022/02/09 20:26:10;;;;;;;;;77.50;61.75;;;;;7.98;69.77;101734.31;5074013;28;45491;-81
2022/02/09 20:28:43;;;;;;;;;79.50;63.75;;;;;7.97;69.61;101736.81;5073628;28;46557;-81
2022/02/09 20:31:12;;;;;;;;;80.75;63.50;;;;;7.94;69.36;101729.69;5073644;28;45518;-81
2022/02/09 20:33:47;;;;;;;;;80.50;65.50;;;;;7.41;69.54;101643.59;5073933;28;45481;-81
2022/02/09 20:36:15;;;;;;;;;79.00;63.50;;;;;7.87;69.57;101729.22;5074016;28;45316;-81
2022/02/09 20:38:43;;;;;;;;;81.75;64.25;;;;;7.64;69.51;101699.94;5074367;28;45377;-81
2022/02/09 20:41:10;;;;;;;;;86.25;67.25;;;;;6.88;69.93;101565.34;5074318;28;45538;-81
2022/02/09 20:43:58;;;;;;;;;83.50;63.75;;;;;7.66;69.87;101708.78;5055917;28;45447;-79
2022/02/09 20:46:20;;;;;;;;;80.50;63.00;;;;;7.61;69.89;101704.97;5073239;28;45625;-80
2022/02/09 20:48:46;;;;;;;;;76.67;62.00;;;;;7.26;70.15;101641.75;5055174;28;46900;-82
2022/02/09 20:51:11;;;;;;;;;74.33;60.33;;;;;7.56;70.24;101690.69;5073667;28;45441;-82
2022/02/09 20:53:36;;;;;;;;;73.00;59.00;;;;;7.22;70.32;101635.41;5055270;28;45462;-81
2022/02/09 20:56:03;;;;;;;;;79.25;62.50;;;;;7.52;70.02;101696.56;5073616;28;45457;-81
2022/02/09 20:58:33;;;;;;;;;75.00;59.25;;;;;7.71;69.92;101732.59;5073487;28;46108;-81
2022/02/09 21:01:04;;;;;;;;;74.00;58.50;;;;;7.63;70.46;101718.13;5054901;28;45562;-81
2022/02/09 21:53:13;;;;;;;;;61.50;50.00;;;;;6.96;71.00;101701.72;5049040;28;46143;-82
2022/02/09 21:55:58;;;;;;;;;64.25;52.00;;;;;7.31;71.18;101751.03;5073115;28;45209;-81
2022/02/09 22:06:31;;;;;;;;;45.50;39.75;;;;;7.31;71.77;101742.28;5072701;28;45220;-81
2022/02/09 22:26:04;;;;;;;;;45.25;41.00;;;;;7.80;71.34;101686.06;5075967;28;45672;-82
2022/02/09 22:32:42;;;;;;;;;46.75;39.00;;;;;8.21;71.56;101708.59;5075512;28;45408;-81
2022/02/09 22:56:40;;;;;;;;;47.50;41.00;;;;;8.34;70.97;101629.03;5075585;28;45423;-81
2022/02/09 22:59:11;;;;;;;;;49.75;42.00;;;;;8.77;71.31;101696.22;5075645;28;45566;-80
2022/02/09 23:01:45;;;;;;;;;48.50;42.50;;;;;8.80;71.14;101685.00;5075232;28;45329;-81
2022/02/09 23:07:03;;;;;;;;;44.00;40.25;;;;;8.57;71.03;101638.22;5075336;28;45770;-79
2022/02/09 23:10:02;;;;;;;;;49.00;42.25;;;;;8.65;71.16;101645.72;5075345;28;45342;-80
2022/02/09 23:15:16;;;;;;;;;54.00;44.75;;;;;8.47;70.85;101622.00;5075205;28;46229;-80
2022/02/09 23:18:12;;;;;;;;;51.50;43.75;;;;;8.86;70.70;101687.06;5074266;28;45358;-80
2022/02/09 23:23:39;;;;;;;;;54.00;44.75;;;;;7.85;70.21;101503.16;5075183;28;45516;-80
2022/02/09 23:58:58;;;;;;;;;55.00;46.00;;;;;9.03;70.30;101655.72;5065631;28;46139;-80
